»·PEaware :: N3141P KBFL-KSBA

N3141P :: KBFL-KSBA

FLIGHT INFORMATION

Flight Status: Arrived
Operator: Privately registered:
United States
More flights under this callsign
Pilot: Andrew N. (12823)
Aircraft: Unknown
(PIPA)
More flights by this aircraft type
Origin: KBFL Meadows
United States
Destination: KSBA Santa Barbara Mun
United States
More flights between these airports :: More routes between these airports
Route: +STIGR V183 RZS
File this flight plan on PilotEdge
Remarks:
Altitude:
(Current/Filed)
10,000ft
Speed:
(Current/Filed)
200kts
Departed: 02-Oct-17 11:48 AM
Arrived: 02-Oct-17 12:26 PM
Distance/Time
Traveled:
72nm/0:37
Distance/Time
To Go:
Arrived

Flight Plot

Page will automatically refresh every two minutes.


Map Options




Map Legend


Flown Route
Filed Route
Departure Airport
Arrival Airport
Navaid (VOR, NDB)
Fix

Horizontal Profiles

Position Reports

Time Latitude Longitude Heading Altitude Ground
Speed
02-Oct-17 11:35 35.436436 -119.054958 218 497ft 0kts
02-Oct-17 11:36 35.436436 -119.054958 218 497ft 0kts
02-Oct-17 11:37 35.436436 -119.054958 218 497ft 0kts
02-Oct-17 11:38 35.436436 -119.054958 218 497ft 0kts
02-Oct-17 11:39 35.436436 -119.054958 218 497ft 0kts
02-Oct-17 11:40 35.436436 -119.054958 218 497ft 0kts
02-Oct-17 11:41 35.436436 -119.054958 218 497ft 0kts
02-Oct-17 11:42 35.436436 -119.054958 218 497ft 0kts
02-Oct-17 11:43 35.436436 -119.054958 218 497ft 0kts
02-Oct-17 11:44 35.436436 -119.054958 218 497ft 0kts
02-Oct-17 11:45 35.436436 -119.054958 218 497ft 0kts
02-Oct-17 11:46 35.436436 -119.054958 218 497ft 0kts
02-Oct-17 11:47 35.436436 -119.054958 218 497ft 0kts
02-Oct-17 11:48 35.433961 -119.054090 134 497ft 21kts
02-Oct-17 11:49 35.429551 -119.048773 134 497ft 23kts
02-Oct-17 11:50 35.425722 -119.044706 227 497ft 0kts
02-Oct-17 11:51 35.425654 -119.046344 316 497ft 28kts
02-Oct-17 11:52 35.442979 -119.066124 314 1610ft 103kts
02-Oct-17 11:53 35.464960 -119.091003 314 2858ft 124kts
02-Oct-17 11:54 35.488798 -119.118261 314 4441ft 105kts
02-Oct-17 11:55 35.509701 -119.141774 314 5750ft 105kts
02-Oct-17 11:56 35.524334 -119.177710 232 6312ft 147kts
02-Oct-17 11:57 35.488796 -119.185526 186 7642ft 134kts
02-Oct-17 11:58 35.451224 -119.188350 191 8664ft 140kts
02-Oct-17 11:59 35.411263 -119.192147 190 9461ft 158kts
02-Oct-17 12:00 35.365176 -119.196352 190 9997ft 188kts
02-Oct-17 12:01 35.314285 -119.217922 216 9990ft 204kts
02-Oct-17 12:02 35.264211 -119.252075 215 9988ft 209kts
02-Oct-17 12:03 35.213791 -119.286655 216 9987ft 210kts
02-Oct-17 12:04 35.163138 -119.321669 216 9987ft 211kts
02-Oct-17 12:05 35.112025 -119.357029 216 9987ft 211kts
02-Oct-17 12:06 35.061412 -119.392040 216 9987ft 211kts
02-Oct-17 12:07 35.010721 -119.427078 216 9987ft 211kts
02-Oct-17 12:08 34.960436 -119.462502 211 9986ft 208kts
02-Oct-17 12:09 34.910375 -119.496663 211 9986ft 206kts
02-Oct-17 12:10 34.863190 -119.528977 211 9985ft 205kts
02-Oct-17 12:11 34.813719 -119.562904 211 9985ft 205kts
02-Oct-17 12:12 34.764112 -119.596931 211 9935ft 205kts
02-Oct-17 12:13 34.714936 -119.630693 210 9721ft 209kts
02-Oct-17 12:14 34.664275 -119.665491 209 9141ft 215kts
02-Oct-17 12:15 34.613998 -119.699816 208 8977ft 202kts
02-Oct-17 12:16 34.566020 -119.732521 209 7810ft 194kts
02-Oct-17 12:17 34.521383 -119.762944 209 6022ft 179kts
02-Oct-17 12:18 34.474944 -119.751939 160 5977ft 175kts
02-Oct-17 12:19 34.427588 -119.730991 160 5979ft 189kts
02-Oct-17 12:20 34.381593 -119.702516 117 5976ft 196kts
02-Oct-17 12:21 34.357163 -119.659200 155 5974ft 147kts
02-Oct-17 12:22 34.328045 -119.630813 86 5218ft 144kts
02-Oct-17 12:23 34.353271 -119.628936 291 3703ft 128kts
02-Oct-17 12:24 34.368051 -119.667777 291 2149ft 132kts
02-Oct-17 12:25 34.388201 -119.708343 301 1618ft 136kts
02-Oct-17 12:26 34.408883 -119.745760 302 1278ft 126kts
02-Oct-17 12:27 34.425469 -119.774467 297 1007ft 92kts
02-Oct-17 12:28 34.429190 -119.796221 265 656ft 76kts
02-Oct-17 12:29 34.428346 -119.825189 263 244ft 66kts
02-Oct-17 12:30 34.428227 -119.840462 249 13ft 17kts
02-Oct-17 12:31 34.430024 -119.843067 167 13ft 8kts
02-Oct-17 12:32 34.430002 -119.843059 159 13ft 0kts
02-Oct-17 12:33 34.430002 -119.843059 159 13ft 0kts
02-Oct-17 12:34 34.430002 -119.843059 159 13ft 0kts
02-Oct-17 12:35 34.430002 -119.843059 159 13ft 0kts
02-Oct-17 12:36 34.430002 -119.843059 159 13ft 0kts
02-Oct-17 12:37 34.430002 -119.843059 159 13ft 0kts

Navigation Log

Ident Type
1. KBFL Airport
2. RZS Navaid
3. KSBA Airport